Time;durP1;ratioP1;P1;durP2;ratioP2;P2;SDS_P1;SDS_P2;PMS_P1;PMS_P2;Temp;Humidity;BMP_temperature;BMP_pressure;BME280_temperature;BME280_humidity;BME280_pressure;Samples;Min_cycle;Max_cycle;Signal;HPM_P1;HPM_P2
2021/11/12 00:14:07;;;;;;;;;;;4.20;1.00;;;;;;4993834;28;19921;-69
2021/11/12 00:16:34;;;;;;;;;;;4.10;1.00;;;;;;4993964;28;19921;-69
2021/11/12 00:19:00;;;;;;;;;;;4.20;1.00;;;;;;4993511;28;19913;-69
2021/11/12 00:21:25;;;;;;;;;;;4.20;1.00;;;;;;4991968;28;19926;-68
2021/11/12 00:23:51;;;;;;;;;;;4.30;1.00;;;;;;4991752;28;20338;-69
2021/11/12 00:26:17;;;;;;;;;;;4.30;1.00;;;;;;4993135;28;19910;-69
2021/11/12 00:28:55;;;;;;;;;;;4.20;1.00;;;;;;4993026;28;19909;-69
2021/11/12 00:32:13;;;;;;;;;;;4.20;1.00;;;;;;4993014;28;19914;-68
2021/11/12 00:36:49;;;;;;;;;;;4.20;1.00;;;;;;4991649;28;19914;-69
2021/11/12 00:39:40;;;;;;;;;;;4.20;1.00;;;;;;4992939;28;19910;-69
2021/11/12 00:44:39;;;;;;;;;;;4.20;1.00;;;;;;4992621;28;20381;-68
2021/11/12 00:47:37;;;;;;;;;;;4.20;1.00;;;;;;4992409;28;20378;-68
2021/11/12 00:55:10;;;;;;;;;;;4.10;1.00;;;;;;4992392;28;19914;-68
2021/11/12 00:57:36;;;;;;;;;;;4.00;1.00;;;;;;4992268;28;19940;-68
2021/11/12 01:00:06;;;;;;;;;;;4.00;1.00;;;;;;4992507;28;19909;-69
2021/11/12 01:02:32;;;;;;;;;;;4.00;1.00;;;;;;4991274;28;20378;-68
2021/11/12 01:04:58;;;;;;;;;;;4.00;1.00;;;;;;4992128;28;19909;-68
2021/11/12 01:07:23;;;;;;;;;;;4.00;1.00;;;;;;4990475;28;20416;-68
2021/11/12 01:09:50;;;;;;;;;;;4.00;1.00;;;;;;4992444;28;20275;-68
2021/11/12 01:12:16;;;;;;;;;;;4.00;1.00;;;;;;4990928;28;19914;-69
2021/11/12 01:14:41;;;;;;;;;;;4.00;1.00;;;;;;4992119;28;19972;-68
2021/11/12 01:17:07;;;;;;;;;;;4.00;1.00;;;;;;4991966;28;19921;-67
2021/11/12 01:19:32;;;;;;;;;;;4.00;1.00;;;;;;4992191;28;19910;-68
2021/11/12 01:21:58;;;;;;;;;;;4.00;1.00;;;;;;4988439;28;19914;-68
2021/11/12 01:24:23;;;;;;;;;;;4.00;1.00;;;;;;4991894;28;19914;-68
2021/11/12 01:26:49;;;;;;;;;;;4.00;1.00;;;;;;4991448;28;19992;-67
2021/11/12 01:29:14;;;;;;;;;;;4.00;1.00;;;;;;4992136;28;19920;-67
2021/11/12 01:31:40;;;;;;;;;;;3.90;1.00;;;;;;4991474;28;20007;-68
2021/11/12 01:34:07;;;;;;;;;;;4.00;1.00;;;;;;4990690;28;19914;-69
2021/11/12 01:36:37;;;;;;;;;;;4.00;1.00;;;;;;4989974;28;19914;-67
2021/11/12 01:39:09;;;;;;;;;;;4.00;1.00;;;;;;4991570;28;19917;-68
2021/11/12 01:41:36;;;;;;;;;;;3.90;1.00;;;;;;4990971;28;19997;-69
2021/11/12 01:44:05;;;;;;;;;;;3.90;1.00;;;;;;4990673;28;19914;-67
2021/11/12 01:46:44;;;;;;;;;;;3.90;1.00;;;;;;4991079;28;20428;-67
2021/11/12 01:51:49;;;;;;;;;;;3.80;1.00;;;;;;4989301;28;19917;-68
2021/11/12 01:59:20;;;;;;;;;;;3.70;1.00;;;;;;4991105;28;19989;-68
2021/11/12 02:01:48;;;;;;;;;;;3.70;1.00;;;;;;4990568;28;19960;-68
2021/11/12 02:04:24;;;;;;;;;;;3.80;1.00;;;;;;4990777;28;19909;-69
2021/11/12 02:06:49;;;;;;;;;;;3.80;1.00;;;;;;4989018;28;19914;-69
2021/11/12 02:09:19;;;;;;;;;;;3.90;1.00;;;;;;4990908;28;19936;-69
2021/11/12 02:11:46;;;;;;;;;;;3.80;1.00;;;;;;4989968;28;20359;-68
2021/11/12 02:14:13;;;;;;;;;;;3.80;1.00;;;;;;4990748;28;20323;-68
2021/11/12 02:16:45;;;;;;;;;;;3.80;1.00;;;;;;4990402;28;20365;-68
2021/11/12 02:19:12;;;;;;;;;;;3.70;1.00;;;;;;4990839;28;19920;-68
2021/11/12 02:21:44;;;;;;;;;;;3.60;1.00;;;;;;4988813;28;19914;-68
2021/11/12 02:24:12;;;;;;;;;;;3.60;1.00;;;;;;4990498;28;20005;-69
2021/11/12 02:26:44;;;;;;;;;;;3.60;1.00;;;;;;4989852;28;19913;-68
2021/11/12 02:29:11;;;;;;;;;;;3.50;1.00;;;;;;4990792;28;19960;-68
2021/11/12 02:31:37;;;;;;;;;;;3.50;1.00;;;;;;4990482;28;19917;-68
2021/11/12 02:34:08;;;;;;;;;;;3.50;1.00;;;;;;4989832;28;20450;-68
2021/11/12 02:36:34;;;;;;;;;;;3.50;1.00;;;;;;4988725;28;19914;-67
2021/11/12 02:39:00;;;;;;;;;;;3.50;1.00;;;;;;4990196;28;20530;-67
2021/11/12 02:41:25;;;;;;;;;;;3.40;1.00;;;;;;4990637;28;19910;-67
2021/11/12 02:43:51;;;;;;;;;;;3.30;1.00;;;;;;4989636;28;20565;-67
2021/11/12 02:46:18;;;;;;;;;;;3.30;1.00;;;;;;4988878;28;19959;-67
2021/11/12 02:48:44;;;;;;;;;;;3.30;1.00;;;;;;4990096;28;19914;-68
2021/11/12 02:51:15;;;;;;;;;;;3.30;1.00;;;;;;4990388;28;20230;-67
2021/11/12 02:53:40;;;;;;;;;;;3.00;1.00;;;;;;4988489;28;19929;-68
2021/11/12 02:56:12;;;;;;;;;;;3.00;1.00;;;;;;4990599;28;19910;-68
2021/11/12 02:58:39;;;;;;;;;;;3.10;1.00;;;;;;4990056;28;20335;-68
2021/11/12 03:01:05;;;;;;;;;;;3.10;1.00;;;;;;4990294;28;19933;-70
2021/11/12 03:03:30;;;;;;;;;;;3.10;1.00;;;;;;4988984;28;19997;-68
2021/11/12 03:05:57;;;;;;;;;;;3.20;1.00;;;;;;4989979;28;20013;-68
2021/11/12 03:08:22;;;;;;;;;;;3.20;1.00;;;;;;4990021;28;20458;-67
2021/11/12 03:10:52;;;;;;;;;;;3.10;1.00;;;;;;4994030;28;19998;-67
2021/11/12 03:13:17;;;;;;;;;;;3.10;1.00;;;;;;4992993;28;20004;-69
2021/11/12 03:15:43;;;;;;;;;;;3.10;1.00;;;;;;4994140;28;19922;-68
2021/11/12 03:18:09;;;;;;;;;;;3.00;1.00;;;;;;4994002;28;19960;-68
2021/11/12 03:20:35;;;;;;;;;;;2.90;1.00;;;;;;4993873;28;19960;-68
2021/11/12 03:23:08;;;;;;;;;;;2.90;1.00;;;;;;4991405;28;20056;-68
2021/11/12 03:25:42;;;;;;;;;;;2.90;1.00;;;;;;4994265;28;20386;-68
2021/11/12 04:00:48;;;;;;;;;;;2.50;1.00;;;;;;4993452;28;19972;-68
2021/11/12 05:33:35;;;;;;;;;;;1.90;1.00;;;;;;4969799;28;20308;-68
2021/11/12 05:56:03;;;;;;;;;;;2.50;1.00;;;;;;4988329;28;19917;-68
2021/11/12 05:58:29;;;;;;;;;;;2.60;1.00;;;;;;4988037;28;19913;-69
2021/11/12 06:00:55;;;;;;;;;;;2.70;1.00;;;;;;4988420;28;19910;-68
2021/11/12 06:03:20;;;;;;;;;;;2.70;1.00;;;;;;4987494;28;19997;-70
2021/11/12 06:05:46;;;;;;;;;;;2.70;1.00;;;;;;4988592;28;19941;-69
2021/11/12 06:08:12;;;;;;;;;;;2.70;1.00;;;;;;4986884;28;19914;-67
2021/11/12 06:10:38;;;;;;;;;;;2.70;1.00;;;;;;4988641;28;19918;-70
2021/11/12 06:13:03;;;;;;;;;;;2.70;1.00;;;;;;4988482;28;20335;-69
2021/11/12 06:15:29;;;;;;;;;;;2.70;1.00;;;;;;4990601;28;20624;-69
2021/11/12 06:17:54;;;;;;;;;;;2.80;1.00;;;;;;4990428;28;20402;-67
2021/11/12 06:20:20;;;;;;;;;;;2.80;1.00;;;;;;4991151;28;19918;-68
2021/11/12 06:22:45;;;;;;;;;;;2.80;1.00;;;;;;4988632;28;20367;-69
2021/11/12 06:25:11;;;;;;;;;;;2.80;1.00;;;;;;5001905;28;20550;-68
2021/11/12 06:27:36;;;;;;;;;;;2.80;1.00;;;;;;5010208;28;19917;-69
2021/11/12 06:30:03;;;;;;;;;;;2.80;1.00;;;;;;5010688;28;19917;-69
2021/11/12 06:32:29;;;;;;;;;;;2.80;1.00;;;;;;5009635;28;19961;-69
2021/11/12 06:34:54;;;;;;;;;;;2.80;1.00;;;;;;4995431;28;19920;-69
2021/11/12 06:37:20;;;;;;;;;;;2.70;1.00;;;;;;4989035;28;20378;-70
2021/11/12 06:39:45;;;;;;;;;;;2.70;1.00;;;;;;4971986;28;20159;-68
2021/11/12 06:45:04;;;;;;;;;;;2.80;1.00;;;;;;4983129;28;19910;-69
2021/11/12 06:50:16;;;;;;;;;;;2.70;1.00;;;;;;4990430;28;20006;-69
2021/11/12 06:52:44;;;;;;;;;;;2.80;1.00;;;;;;4988153;28;19961;-69
2021/11/12 06:55:11;;;;;;;;;;;2.80;1.00;;;;;;4985116;28;19914;-69
2021/11/12 06:57:36;;;;;;;;;;;2.80;1.00;;;;;;4986970;28;19916;-68
2021/11/12 07:00:04;;;;;;;;;;;2.90;1.00;;;;;;4989677;28;20318;-67
2021/11/12 07:02:30;;;;;;;;;;;2.90;1.00;;;;;;4989021;28;19913;-68
2021/11/12 07:04:55;;;;;;;;;;;2.90;1.00;;;;;;4990152;28;19916;-67
2021/11/12 07:07:21;;;;;;;;;;;3.00;1.00;;;;;;4976517;28;19930;-68
2021/11/12 07:09:47;;;;;;;;;;;3.00;1.00;;;;;;4978797;28;19938;-68
2021/11/12 07:12:13;;;;;;;;;;;3.00;1.00;;;;;;4976072;28;19914;-69
2021/11/12 07:14:38;;;;;;;;;;;3.00;1.00;;;;;;4980942;28;19924;-68
2021/11/12 07:17:05;;;;;;;;;;;2.90;1.00;;;;;;4980334;28;19917;-69
2021/11/12 07:19:31;;;;;;;;;;;2.90;1.00;;;;;;4978973;28;19918;-69
2021/11/12 07:21:57;;;;;;;;;;;2.90;1.00;;;;;;4977108;28;19979;-68
2021/11/12 07:24:24;;;;;;;;;;;2.90;1.00;;;;;;4982075;28;19913;-68
2021/11/12 07:26:49;;;;;;;;;;;2.90;1.00;;;;;;4978439;28;19941;-69
2021/11/12 07:29:17;;;;;;;;;;;2.90;1.00;;;;;;4982001;28;20295;-68
2021/11/12 07:31:44;;;;;;;;;;;3.00;1.00;;;;;;4981737;28;20355;-68
2021/11/12 07:34:09;;;;;;;;;;;3.00;1.00;;;;;;4980901;28;19922;-69
2021/11/12 07:36:37;;;;;;;;;;;3.10;1.00;;;;;;4977673;28;19913;-69
2021/11/12 07:39:21;;;;;;;;;;;3.10;1.00;;;;;;4978723;28;19918;-68
2021/11/12 07:47:13;;;;;;;;;;;3.20;1.00;;;;;;4979632;28;20411;-68
2021/11/12 07:49:39;;;;;;;;;;;3.20;1.00;;;;;;4981087;28;19918;-69
2021/11/12 07:52:05;;;;;;;;;;;3.30;1.00;;;;;;4978938;28;20268;-68
2021/11/12 07:54:31;;;;;;;;;;;3.40;1.00;;;;;;4978909;28;20354;-68
2021/11/12 07:56:56;;;;;;;;;;;3.40;1.00;;;;;;4982541;28;19910;-68
2021/11/12 07:59:22;;;;;;;;;;;3.50;1.00;;;;;;4976451;28;20319;-68
2021/11/12 08:01:47;;;;;;;;;;;3.50;1.00;;;;;;4972363;28;19966;-69
2021/11/12 08:04:13;;;;;;;;;;;3.50;1.00;;;;;;4973151;28;19914;-68
2021/11/12 08:06:39;;;;;;;;;;;3.60;1.00;;;;;;4971529;28;19914;-68
2021/11/12 08:09:11;;;;;;;;;;;3.60;1.00;;;;;;4972750;28;19910;-68
2021/11/12 08:11:43;;;;;;;;;;;3.60;1.00;;;;;;4972885;28;19965;-68
2021/11/12 08:14:15;;;;;;;;;;;3.60;1.00;;;;;;4972543;28;19985;-68
2021/11/12 08:24:15;;;;;;;;;;;3.70;1.00;;;;;;4974804;28;19914;-68
2021/11/12 08:34:41;;;;;;;;;;;3.90;1.00;;;;;;4991523;28;19918;-68
2021/11/12 08:40:00;;;;;;;;;;;4.00;1.00;;;;;;4991478;28;20072;-68
2021/11/12 08:42:32;;;;;;;;;;;4.00;1.00;;;;;;4990206;28;20358;-68
2021/11/12 08:45:12;;;;;;;;;;;4.00;1.00;;;;;;4991164;28;20239;-67
2021/11/12 08:47:41;;;;;;;;;;;4.00;99.90;;;;;;4991066;28;19914;-68
2021/11/12 08:50:07;;;;;;;;;;;4.00;99.90;;;;;;4991601;28;19917;-69
2021/11/12 08:52:33;;;;;;;;;;;4.10;99.90;;;;;;4989005;28;20248;-68
2021/11/12 08:55:04;;;;;;;;;;;4.10;99.90;;;;;;4991093;28;19925;-68
2021/11/12 08:57:30;;;;;;;;;;;4.10;99.90;;;;;;4991190;28;19932;-68
2021/11/12 08:59:55;;;;;;;;;;;4.10;99.90;;;;;;4991527;28;19910;-68
2021/11/12 09:02:25;;;;;;;;;;;4.20;99.90;;;;;;4990051;28;19910;-68
2021/11/12 09:04:51;;;;;;;;;;;4.30;99.90;;;;;;4990700;28;19963;-67
2021/11/12 09:07:17;;;;;;;;;;;4.30;99.90;;;;;;4989305;28;19925;-68
2021/11/12 09:09:44;;;;;;;;;;;4.40;1.00;;;;;;4991309;28;19913;-68
2021/11/12 09:12:12;;;;;;;;;;;4.40;1.00;;;;;;4990453;28;19914;-68
2021/11/12 09:14:42;;;;;;;;;;;4.40;1.00;;;;;;4990847;28;19918;-67
2021/11/12 09:17:08;;;;;;;;;;;4.50;1.00;;;;;;4990973;28;19918;-67
2021/11/12 09:19:44;;;;;;;;;;;4.40;1.00;;;;;;4991712;28;19921;-68
2021/11/12 09:22:10;;;;;;;;;;;4.40;1.00;;;;;;4988778;28;20359;-68
2021/11/12 09:24:35;;;;;;;;;;;4.20;1.00;;;;;;4990576;28;20024;-67
2021/11/12 09:27:01;;;;;;;;;;;4.30;1.00;;;;;;4991768;28;20351;-68
2021/11/12 09:29:26;;;;;;;;;;;4.40;1.00;;;;;;4991483;28;19920;-69
2021/11/12 09:31:52;;;;;;;;;;;4.40;1.00;;;;;;4982178;28;19922;-69
2021/11/12 09:34:17;;;;;;;;;;;4.50;1.00;;;;;;4984055;28;19920;-67
2021/11/12 09:36:43;;;;;;;;;;;4.50;99.90;;;;;;4980735;28;19976;-68
2021/11/12 09:39:09;;;;;;;;;;;4.60;99.90;;;;;;4980928;28;20374;-70
2021/11/12 09:41:34;;;;;;;;;;;4.70;1.00;;;;;;4981450;28;20028;-68
2021/11/12 09:44:02;;;;;;;;;;;4.80;1.00;;;;;;4980745;28;19914;-69
2021/11/12 09:46:29;;;;;;;;;;;4.80;1.00;;;;;;4978939;28;19918;-67
2021/11/12 09:48:59;;;;;;;;;;;4.80;99.90;;;;;;4983251;28;19914;-67
2021/11/12 09:51:24;;;;;;;;;;;4.90;99.90;;;;;;4980473;28;19909;-68
2021/11/12 09:53:50;;;;;;;;;;;5.00;99.90;;;;;;4982333;28;19937;-69
2021/11/12 09:56:15;;;;;;;;;;;5.10;1.00;;;;;;4985432;28;19929;-68
2021/11/12 09:58:45;;;;;;;;;;;5.10;1.00;;;;;;4973451;28;19958;-68
2021/11/12 10:01:11;;;;;;;;;;;5.20;99.90;;;;;;4973883;28;19910;-68
2021/11/12 10:03:45;;;;;;;;;;;5.30;1.00;;;;;;4973303;28;19932;-69
2021/11/12 10:06:18;;;;;;;;;;;5.40;1.00;;;;;;4973336;28;19914;-68
2021/11/12 10:08:43;;;;;;;;;;;5.50;1.00;;;;;;4971306;28;19910;-68
2021/11/12 10:11:10;;;;;;;;;;;5.50;99.90;;;;;;4972317;28;19922;-68
2021/11/12 10:13:37;;;;;;;;;;;5.30;99.90;;;;;;4973103;28;19910;-68
2021/11/12 10:19:00;;;;;;;;;;;5.40;1.00;;;;;;4990826;28;19921;-68
2021/11/12 10:21:30;;;;;;;;;;;5.50;99.90;;;;;;4990395;28;19956;-69
2021/11/12 10:24:04;;;;;;;;;;;5.40;1.00;;;;;;4972689;28;19910;-68
2021/11/12 10:26:32;;;;;;;;;;;5.30;1.00;;;;;;4990976;28;20354;-69
2021/11/12 10:29:08;;;;;;;;;;;5.20;1.00;;;;;;4991084;28;19910;-68
2021/11/12 10:31:38;;;;;;;;;;;5.30;99.90;;;;;;4990215;28;20080;-69
2021/11/12 10:34:08;;;;;;;;;;;5.40;65.90;;;;;;4989600;28;19914;-68
2021/11/12 10:36:51;;;;;;;;;;;5.50;9.20;;;;;;4989778;28;19914;-68
2021/11/12 10:39:36;;;;;;;;;;;5.60;1.00;;;;;;4990766;28;19910;-68
2021/11/12 10:42:10;;;;;;;;;;;5.60;1.00;;;;;;4988207;28;20010;-68
2021/11/12 10:44:40;;;;;;;;;;;5.60;1.00;;;;;;4990372;28;20243;-68
2021/11/12 10:47:06;;;;;;;;;;;5.50;1.00;;;;;;4990134;28;19936;-68
2021/11/12 10:49:38;;;;;;;;;;;5.60;1.00;;;;;;4991247;28;19920;-68
2021/11/12 10:52:04;;;;;;;;;;;5.70;1.00;;;;;;4987514;28;20036;-68
2021/11/12 10:57:14;;;;;;;;;;;5.80;1.00;;;;;;4990156;28;19910;-69
2021/11/12 11:00:05;;;;;;;;;;;5.90;1.00;;;;;;4990689;28;19980;-68
2021/11/12 11:02:39;;;;;;;;;;;6.00;99.90;;;;;;4966010;28;19928;-69
2021/11/12 11:05:08;;;;;;;;;;;6.10;1.00;;;;;;4989119;28;19916;-69
2021/11/12 11:07:34;;;;;;;;;;;6.10;1.00;;;;;;4987365;28;20320;-68
2021/11/12 11:10:00;;;;;;;;;;;6.20;1.00;;;;;;4971151;28;19992;-69
2021/11/12 11:12:30;;;;;;;;;;;6.20;1.00;;;;;;4971452;28;19917;-69
2021/11/12 11:15:09;;;;;;;;;;;6.00;1.00;;;;;;4989658;28;19914;-68
2021/11/12 11:17:37;;;;;;;;;;;6.00;99.90;;;;;;4989410;28;19918;-68
2021/11/12 11:20:07;;;;;;;;;;;6.00;1.00;;;;;;4990960;28;20604;-68
2021/11/12 11:22:43;;;;;;;;;;;5.80;1.00;;;;;;4988087;28;19909;-68
2021/11/12 11:25:10;;;;;;;;;;;5.80;96.00;;;;;;4989778;28;19968;-68
2021/11/12 11:27:36;;;;;;;;;;;5.60;99.90;;;;;;4990129;28;19910;-68
2021/11/12 11:30:02;;;;;;;;;;;5.50;52.30;;;;;;4992806;28;19910;-68
2021/11/12 11:32:27;;;;;;;;;;;5.50;1.00;;;;;;4993393;28;19914;-69
2021/11/12 11:34:53;;;;;;;;;;;5.50;91.30;;;;;;4994135;28;19968;-69
2021/11/12 11:37:19;;;;;;;;;;;5.60;99.90;;;;;;4991781;28;20016;-69
2021/11/12 11:39:44;;;;;;;;;;;5.60;1.00;;;;;;4975287;28;19968;-70
2021/11/12 11:42:11;;;;;;;;;;;5.50;99.90;;;;;;4992299;28;19967;-68
2021/11/12 11:44:39;;;;;;;;;;;5.50;18.80;;;;;;4993339;28;19910;-70
2021/11/12 11:47:05;;;;;;;;;;;5.50;99.90;;;;;;4993423;28;19918;-69
2021/11/12 11:49:35;;;;;;;;;;;5.60;99.90;;;;;;4993152;28;19935;-69
2021/11/12 11:52:02;;;;;;;;;;;5.50;1.00;;;;;;4990971;28;19940;-69
2021/11/12 11:54:31;;;;;;;;;;;5.40;99.90;;;;;;4991557;28;19917;-69
2021/11/12 11:57:10;;;;;;;;;;;5.30;99.90;;;;;;4992551;28;19914;-68
2021/11/12 11:59:36;;;;;;;;;;;5.30;99.90;;;;;;4992710;28;19929;-68
2021/11/12 12:02:05;;;;;;;;;;;5.50;1.00;;;;;;4974769;28;19932;-67
2021/11/12 12:04:40;;;;;;;;;;;5.60;1.00;;;;;;4993096;28;19993;-68
2021/11/12 12:07:15;;;;;;;;;;;5.70;1.00;;;;;;4991028;28;20001;-69
2021/11/12 12:09:44;;;;;;;;;;;5.70;1.00;;;;;;4991972;28;19914;-69
2021/11/12 12:12:10;;;;;;;;;;;5.60;1.00;;;;;;4991750;28;19921;-68
2021/11/12 12:14:38;;;;;;;;;;;5.60;1.00;;;;;;4992191;28;20016;-69
2021/11/12 12:17:06;;;;;;;;;;;5.60;99.90;;;;;;4992760;28;19917;-67
2021/11/12 12:19:42;;;;;;;;;;;5.00;1.00;;;;;;4992231;28;19914;-68
2021/11/12 12:22:36;;;;;;;;;;;4.80;99.90;;;;;;4990145;28;20286;-69
2021/11/12 12:42:37;;;;;;;;;;;5.80;11.90;;;;;;4991039;28;19920;-68
2021/11/12 13:22:04;;;;;;;;;;;5.30;99.90;;;;;;4991453;28;19914;-69
2021/11/12 13:24:36;;;;;;;;;;;5.50;99.90;;;;;;4991056;28;19921;-70
2021/11/12 13:27:03;;;;;;;;;;;5.60;99.90;;;;;;4991861;28;19921;-70
2021/11/12 13:29:29;;;;;;;;;;;5.70;91.30;;;;;;4993118;28;19914;-70
2021/11/12 13:32:00;;;;;;;;;;;5.80;58.40;;;;;;4991361;28;19910;-68
2021/11/12 13:34:26;;;;;;;;;;;5.80;1.00;;;;;;4991844;28;19917;-69
2021/11/12 13:36:52;;;;;;;;;;;5.80;1.00;;;;;;4990402;28;19924;-70
2021/11/12 13:39:21;;;;;;;;;;;5.70;1.00;;;;;;4991477;28;20371;-69
2021/11/12 13:41:51;;;;;;;;;;;5.50;1.00;;;;;;4990973;28;19956;-69
2021/11/12 13:44:38;;;;;;;;;;;5.40;99.90;;;;;;4991314;28;19920;-69
2021/11/12 13:47:08;;;;;;;;;;;5.20;99.90;;;;;;4991203;28;19910;-68
2021/11/12 13:49:37;;;;;;;;;;;5.00;1.00;;;;;;4991278;28;19917;-69
2021/11/12 13:52:09;;;;;;;;;;;4.80;1.00;;;;;;4988179;28;19917;-70
2021/11/12 13:54:39;;;;;;;;;;;4.40;1.00;;;;;;4990726;28;19925;-69
2021/11/12 13:57:13;;;;;;;;;;;4.30;1.00;;;;;;4991528;28;19917;-70
2021/11/12 13:59:49;;;;;;;;;;;4.40;1.00;;;;;;4991117;28;19972;-69
2021/11/12 14:02:14;;;;;;;;;;;4.50;1.00;;;;;;4988947;28;19960;-69
2021/11/12 14:04:40;;;;;;;;;;;4.40;1.00;;;;;;4973284;28;19952;-69
2021/11/12 14:07:14;;;;;;;;;;;4.40;1.00;;;;;;4989434;28;19909;-69
2021/11/12 14:09:39;;;;;;;;;;;4.40;1.00;;;;;;4990903;28;20033;-70
2021/11/12 14:12:07;;;;;;;;;;;4.50;1.00;;;;;;4989760;28;19953;-69
2021/11/12 14:14:34;;;;;;;;;;;4.60;1.00;;;;;;4987024;28;19925;-68
2021/11/12 14:17:21;;;;;;;;;;;4.70;1.00;;;;;;4990452;28;19955;-70
2021/11/12 14:25:10;;;;;;;;;;;5.00;1.00;;;;;;4989981;28;20351;-70
2021/11/12 14:27:55;;;;;;;;;;;5.00;1.00;;;;;;4989757;28;19913;-70
2021/11/12 14:33:11;;;;;;;;;;;4.60;1.00;;;;;;4988877;28;19960;-71
2021/11/12 14:46:12;;;;;;;;;;;4.50;1.00;;;;;;4989910;28;20417;-69
2021/11/12 14:48:42;;;;;;;;;;;4.50;1.00;;;;;;4989881;28;19936;-69
2021/11/12 14:51:11;;;;;;;;;;;4.60;1.00;;;;;;4989315;28;20323;-67
2021/11/12 14:56:07;;;;;;;;;;;4.50;1.00;;;;;;5001488;28;19917;-67
2021/11/12 14:58:38;;;;;;;;;;;4.50;1.00;;;;;;4989228;28;19914;-67
2021/11/12 15:01:14;;;;;;;;;;;4.50;1.00;;;;;;4990067;28;20659;-70
2021/11/12 15:03:44;;;;;;;;;;;4.60;1.00;;;;;;4988409;28;19952;-69
2021/11/12 15:06:10;;;;;;;;;;;4.50;1.00;;;;;;4989710;28;19922;-71
2021/11/12 15:08:47;;;;;;;;;;;4.50;1.00;;;;;;4987433;28;19969;-69
2021/11/12 15:11:15;;;;;;;;;;;4.60;1.00;;;;;;4990598;28;20024;-70
2021/11/12 15:13:41;;;;;;;;;;;4.50;1.00;;;;;;4988577;28;19914;-69
2021/11/12 15:16:18;;;;;;;;;;;4.50;1.00;;;;;;4990802;28;20523;-69
2021/11/12 15:18:44;;;;;;;;;;;4.20;1.00;;;;;;4989510;28;20355;-69
2021/11/12 15:21:20;;;;;;;;;;;4.20;1.00;;;;;;4990420;28;20000;-70
2021/11/12 15:31:19;;;;;;;;;;;4.30;1.00;;;;;;4989605;28;20340;-67
2021/11/12 15:33:46;;;;;;;;;;;4.30;1.00;;;;;;4988467;28;19978;-68
2021/11/12 15:36:15;;;;;;;;;;;4.40;1.00;;;;;;4988920;28;20061;-69
2021/11/12 15:47:02;;;;;;;;;;;4.10;1.00;;;;;;4987531;28;19921;-69
2021/11/12 15:49:28;;;;;;;;;;;4.20;1.00;;;;;;4989063;28;20524;-68
2021/11/12 15:52:00;;;;;;;;;;;4.20;1.00;;;;;;4982798;28;19921;-69
2021/11/12 16:19:52;;;;;;;;;;;4.60;1.00;;;;;;4958790;28;19910;-68
2021/11/12 16:27:05;;;;;;;;;;;4.40;1.00;;;;;;4991697;28;19964;-69
2021/11/12 16:29:45;;;;;;;;;;;4.30;1.00;;;;;;4985554;28;19913;-69
2021/11/12 16:32:19;;;;;;;;;;;4.20;1.00;;;;;;4991086;28;20264;-68
2021/11/12 16:34:48;;;;;;;;;;;4.20;1.00;;;;;;4992046;28;19917;-69
2021/11/12 16:37:16;;;;;;;;;;;4.20;1.00;;;;;;4989932;28;19914;-68
2021/11/12 16:39:48;;;;;;;;;;;4.20;1.00;;;;;;4990922;28;20339;-68
2021/11/12 16:45:00;;;;;;;;;;;4.30;1.00;;;;;;4991182;28;19917;-68
2021/11/12 16:47:33;;;;;;;;;;;4.30;1.00;;;;;;4991147;28;20319;-68
2021/11/12 16:58:05;;;;;;;;;;;4.20;1.00;;;;;;4992051;28;20434;-68
2021/11/12 17:13:42;;;;;;;;;;;4.20;1.00;;;;;;4990312;28;19917;-69
2021/11/12 17:19:14;;;;;;;;;;;4.20;1.00;;;;;;4991312;28;20330;-69
2021/11/12 17:48:49;;;;;;;;;;;4.20;1.00;;;;;;4992098;28;20381;-72
2021/11/12 17:51:30;;;;;;;;;;;4.20;1.00;;;;;;4991238;28;19936;-71
2021/11/12 18:12:42;;;;;;;;;;;4.40;1.00;;;;;;4990042;28;19967;-69
2021/11/12 21:45:51;;;;;;;;;;;3.90;1.00;;;;;;4984491;28;19925;-69
2021/11/12 21:48:18;;;;;;;;;;;3.90;1.00;;;;;;4991317;28;19913;-69
2021/11/12 21:50:43;;;;;;;;;;;3.90;1.00;;;;;;4991819;28;19941;-69
2021/11/12 21:53:09;;;;;;;;;;;3.90;1.00;;;;;;4988623;28;19956;-68
2021/11/12 21:55:35;;;;;;;;;;;3.90;1.00;;;;;;4991028;28;19925;-69
2021/11/12 21:58:01;;;;;;;;;;;3.90;1.00;;;;;;4973476;28;20024;-68
2021/11/12 22:00:27;;;;;;;;;;;4.00;1.00;;;;;;4990954;28;20323;-68
2021/11/12 22:02:53;;;;;;;;;;;4.00;1.00;;;;;;4990060;28;20051;-69
2021/11/12 22:05:19;;;;;;;;;;;3.90;1.00;;;;;;4990663;28;19922;-69
2021/11/12 22:07:45;;;;;;;;;;;3.90;1.00;;;;;;4989076;28;19918;-69
2021/11/12 22:10:10;;;;;;;;;;;3.80;1.00;;;;;;4991013;28;20383;-68
2021/11/12 22:12:36;;;;;;;;;;;3.80;1.00;;;;;;4990233;28;20463;-68
2021/11/12 22:15:02;;;;;;;;;;;3.80;1.00;;;;;;4989977;28;19924;-69
2021/11/12 22:17:27;;;;;;;;;;;3.90;1.00;;;;;;4990167;28;19925;-69
2021/11/12 22:19:53;;;;;;;;;;;3.80;1.00;;;;;;4990607;28;19914;-70
2021/11/12 22:22:18;;;;;;;;;;;3.80;1.00;;;;;;4987502;28;19968;-69
2021/11/12 22:24:44;;;;;;;;;;;3.80;1.00;;;;;;4990799;28;19914;-70
2021/11/12 22:27:10;;;;;;;;;;;3.70;1.00;;;;;;4991151;28;19957;-69
2021/11/12 22:29:35;;;;;;;;;;;3.80;1.00;;;;;;4982150;28;19918;-69
2021/11/12 22:32:01;;;;;;;;;;;3.70;1.00;;;;;;4989641;28;20331;-69
2021/11/12 22:34:28;;;;;;;;;;;3.80;1.00;;;;;;4990229;28;19924;-69
2021/11/12 22:36:53;;;;;;;;;;;3.80;1.00;;;;;;4988164;28;19918;-69
2021/11/12 22:39:21;;;;;;;;;;;3.80;1.00;;;;;;4990103;28;19920;-69
2021/11/12 22:41:47;;;;;;;;;;;3.80;1.00;;;;;;4989370;28;20379;-68
2021/11/12 22:44:12;;;;;;;;;;;3.90;1.00;;;;;;4991344;28;19945;-70
2021/11/12 22:46:38;;;;;;;;;;;3.90;1.00;;;;;;4990003;28;20004;-67
2021/11/12 22:49:04;;;;;;;;;;;3.90;1.00;;;;;;4990083;28;19956;-69
2021/11/12 22:51:32;;;;;;;;;;;3.90;1.00;;;;;;4988788;28;19944;-69
2021/11/12 22:53:58;;;;;;;;;;;3.90;1.00;;;;;;4988091;28;20037;-70
2021/11/12 22:56:24;;;;;;;;;;;3.80;1.00;;;;;;4988151;28;19973;-69
2021/11/12 22:58:50;;;;;;;;;;;3.80;1.00;;;;;;4988944;28;19910;-69
2021/11/12 23:01:18;;;;;;;;;;;3.80;1.00;;;;;;4983805;28;20001;-69
2021/11/12 23:03:43;;;;;;;;;;;3.80;1.00;;;;;;4986167;28;20283;-70
2021/11/12 23:06:09;;;;;;;;;;;3.80;1.00;;;;;;4989997;28;19917;-68
2021/11/12 23:08:35;;;;;;;;;;;3.80;1.00;;;;;;4988130;28;19960;-68
2021/11/12 23:11:01;;;;;;;;;;;3.80;1.00;;;;;;4990069;28;20255;-69
2021/11/12 23:13:27;;;;;;;;;;;3.80;1.00;;;;;;4988917;28;19909;-69
2021/11/12 23:15:54;;;;;;;;;;;3.80;1.00;;;;;;4989417;28;19929;-68
2021/11/12 23:18:20;;;;;;;;;;;3.90;1.00;;;;;;4989586;28;20235;-69
2021/11/12 23:20:46;;;;;;;;;;;3.90;1.00;;;;;;4989694;28;19921;-69
2021/11/12 23:23:11;;;;;;;;;;;3.80;1.00;;;;;;4987584;28;19921;-69
2021/11/12 23:25:37;;;;;;;;;;;3.80;1.00;;;;;;4991950;28;19914;-68
2021/11/12 23:28:02;;;;;;;;;;;3.80;1.00;;;;;;4993628;28;19918;-68
2021/11/12 23:30:28;;;;;;;;;;;3.80;1.00;;;;;;4993750;28;19917;-69
2021/11/12 23:32:53;;;;;;;;;;;3.90;1.00;;;;;;4991332;28;20389;-68
2021/11/12 23:35:19;;;;;;;;;;;3.90;1.00;;;;;;4992638;28;19922;-69
2021/11/12 23:37:44;;;;;;;;;;;3.90;1.00;;;;;;4992548;28;19918;-69
2021/11/12 23:40:10;;;;;;;;;;;3.90;1.00;;;;;;4994842;28;19913;-69
2021/11/12 23:42:36;;;;;;;;;;;3.90;1.00;;;;;;4994004;28;19976;-69
2021/11/12 23:45:02;;;;;;;;;;;3.90;1.00;;;;;;4994141;28;19922;-69
2021/11/12 23:47:28;;;;;;;;;;;3.90;1.00;;;;;;4993162;28;20010;-68
2021/11/12 23:49:53;;;;;;;;;;;3.90;1.00;;;;;;4993743;28;20012;-68
2021/11/12 23:52:19;;;;;;;;;;;3.90;1.00;;;;;;4991262;28;20397;-68
2021/11/12 23:54:44;;;;;;;;;;;3.80;1.00;;;;;;4993905;28;19918;-68
2021/11/12 23:57:10;;;;;;;;;;;3.90;1.00;;;;;;4993068;28;19956;-67
2021/11/12 23:59:35;;;;;;;;;;;3.90;1.00;;;;;;4993076;28;20299;-69
